Time,TemperatureF,DewpointF,PressureIn,WindDirection,WindDirectionDegrees,WindSpeedMPH,WindSpeedGustMPH,Humidity,HourlyPrecipIn,Conditions,Clouds,dailyrainin,SolarRadiationWatts/m^2,SoftwareType,DateUTC
2013-01-08 00:02:00,55.0,18.0,-100.00,East,87,17.0,22.0,23,-99.99,,,0.00,0.000000,,2013-01-08 08:02:00,
2013-01-08 01:12:00,56.0,17.0,-100.00,East,92,16.0,22.0,21,0.00,,,0.00,1.000000,,2013-01-08 09:12:00,
2013-01-08 01:22:00,56.0,17.0,-100.00,East,92,16.0,22.0,21,0.00,,,0.00,1.000000,,2013-01-08 09:22:00,
2013-01-08 02:12:00,55.0,16.0,-100.00,East,92,19.0,25.0,21,-99.99,,,0.00,0.000000,,2013-01-08 10:12:00,
2013-01-08 02:22:00,55.0,16.0,-100.00,East,92,19.0,25.0,21,-99.99,,,0.00,0.000000,,2013-01-08 10:22:00,
2013-01-08 02:32:00,55.0,16.0,-100.00,East,92,19.0,25.0,21,-99.99,,,0.00,0.000000,,2013-01-08 10:32:00,
2013-01-08 02:42:00,55.0,16.0,-100.00,East,92,19.0,25.0,21,-99.99,,,0.00,0.000000,,2013-01-08 10:42:00,
2013-01-08 03:12:00,56.0,17.0,-100.00,East,90,16.0,25.0,21,-99.99,,,0.00,0.000000,,2013-01-08 11:12:00,
2013-01-08 03:22:00,56.0,17.0,-100.00,East,90,16.0,25.0,21,-99.99,,,0.00,0.000000,,2013-01-08 11:22:00,
2013-01-08 04:12:00,57.0,16.0,-100.00,East,94,16.0,19.0,20,-99.99,,,0.00,0.000000,,2013-01-08 12:12:00,
2013-01-08 04:22:00,57.0,16.0,-100.00,East,94,16.0,19.0,20,-99.99,,,0.00,0.000000,,2013-01-08 12:22:00,
2013-01-08 05:12:00,56.0,19.0,-100.00,East,94,17.0,21.0,23,-99.99,,,0.00,0.000000,,2013-01-08 13:12:00,
2013-01-08 05:22:00,56.0,19.0,-100.00,East,94,17.0,21.0,23,-99.99,,,0.00,0.000000,,2013-01-08 13:22:00,
2013-01-08 06:12:00,57.0,21.0,-100.00,East,91,18.0,22.0,24,-99.99,,,0.00,0.000000,,2013-01-08 14:12:00,
2013-01-08 06:23:00,57.0,21.0,-100.00,East,91,18.0,22.0,24,-99.99,,,0.00,0.000000,,2013-01-08 14:23:00,
2013-01-08 07:02:00,56.0,22.0,-100.00,East,91,23.0,26.0,26,-99.99,,,0.00,1.000000,,2013-01-08 15:02:00,
2013-01-08 07:42:00,56.0,22.0,-100.00,East,91,23.0,26.0,26,-99.99,,,0.00,1.000000,,2013-01-08 15:42:00,
2013-01-08 08:12:00,56.0,23.0,-100.00,East,92,20.0,26.0,28,-99.99,,,0.00,11.000000,,2013-01-08 16:12:00,
2013-01-08 08:22:00,56.0,23.0,-100.00,East,92,20.0,26.0,28,-99.99,,,0.00,11.000000,,2013-01-08 16:22:00,
2013-01-08 08:33:00,56.0,23.0,-100.00,East,92,20.0,26.0,28,-99.99,,,0.00,11.000000,,2013-01-08 16:33:00,
2013-01-08 08:42:00,56.0,23.0,-100.00,East,92,20.0,26.0,28,-99.99,,,0.00,11.000000,,2013-01-08 16:42:00,
2013-01-08 09:12:00,58.0,26.0,-100.00,East,92,22.0,28.0,29,0.00,,,0.00,144.000000,,2013-01-08 17:12:00,
2013-01-08 09:23:00,58.0,26.0,-100.00,East,92,22.0,28.0,29,0.00,,,0.00,144.000000,,2013-01-08 17:23:00,
2013-01-08 09:33:00,58.0,26.0,-100.00,East,92,22.0,28.0,29,0.00,,,0.00,144.000000,,2013-01-08 17:33:00,
2013-01-08 09:42:00,58.0,26.0,-100.00,East,92,22.0,28.0,29,0.00,,,0.00,144.000000,,2013-01-08 17:42:00,
2013-01-08 10:12:00,61.0,29.0,-100.00,ENE,72,24.0,29.0,29,0.00,,,-99.99,344.000000,,2013-01-08 18:12:00,
2013-01-08 10:23:00,61.0,29.0,-100.00,ENE,72,24.0,29.0,29,0.00,,,-99.99,344.000000,,2013-01-08 18:23:00,
2013-01-08 10:33:00,61.0,29.0,-100.00,ENE,72,24.0,29.0,29,0.00,,,-99.99,344.000000,,2013-01-08 18:33:00,
2013-01-08 10:43:00,61.0,29.0,-100.00,ENE,72,24.0,29.0,29,0.00,,,-99.99,344.000000,,2013-01-08 18:43:00,
2013-01-08 11:12:00,65.0,29.0,-100.00,ENE,69,27.0,36.0,26,0.00,,,0.00,461.000000,,2013-01-08 19:12:00,
2013-01-08 11:22:00,65.0,29.0,-100.00,ENE,69,27.0,36.0,26,0.00,,,0.00,461.000000,,2013-01-08 19:22:00,
2013-01-08 11:32:00,65.0,29.0,-100.00,ENE,69,27.0,36.0,26,0.00,,,0.00,461.000000,,2013-01-08 19:32:00,
2013-01-08 11:42:00,65.0,29.0,-100.00,ENE,69,27.0,36.0,26,0.00,,,0.00,461.000000,,2013-01-08 19:42:00,
2013-01-08 12:12:00,67.0,30.0,-100.00,ENE,77,20.0,35.0,25,0.00,,,0.00,507.000000,,2013-01-08 20:12:00,
2013-01-08 12:22:00,67.0,30.0,-100.00,ENE,77,20.0,35.0,25,0.00,,,0.00,507.000000,,2013-01-08 20:22:00,
2013-01-08 12:33:00,67.0,30.0,-100.00,ENE,77,20.0,35.0,25,0.00,,,0.00,507.000000,,2013-01-08 20:33:00,
2013-01-08 12:43:00,67.0,30.0,-100.00,ENE,77,20.0,35.0,25,0.00,,,0.00,507.000000,,2013-01-08 20:43:00,
2013-01-08 13:12:00,68.0,30.0,-100.00,ENE,74,17.0,28.0,24,0.00,,,0.00,557.000000,,2013-01-08 21:12:00,
2013-01-08 13:22:00,68.0,30.0,-100.00,ENE,74,17.0,28.0,24,0.00,,,0.00,557.000000,,2013-01-08 21:22:00,
2013-01-08 13:33:00,68.0,30.0,-100.00,ENE,74,17.0,28.0,24,0.00,,,0.00,557.000000,,2013-01-08 21:33:00,
2013-01-08 13:42:00,68.0,30.0,-100.00,ENE,74,17.0,28.0,24,0.00,,,0.00,557.000000,,2013-01-08 21:42:00,
2013-01-08 14:12:00,69.0,31.0,-100.00,East,85,15.0,24.0,24,0.00,,,0.00,504.000000,,2013-01-08 22:12:00,
2013-01-08 14:22:00,69.0,31.0,-100.00,East,85,15.0,24.0,24,0.00,,,0.00,504.000000,,2013-01-08 22:22:00,
2013-01-08 14:32:00,69.0,31.0,-100.00,East,85,15.0,24.0,24,0.00,,,0.00,504.000000,,2013-01-08 22:32:00,
2013-01-08 14:42:00,69.0,31.0,-100.00,East,85,15.0,24.0,24,0.00,,,0.00,504.000000,,2013-01-08 22:42:00,
2013-01-08 15:12:00,69.0,30.0,-100.00,East,95,10.0,24.0,23,0.00,,,0.00,403.000000,,2013-01-08 23:12:00,
2013-01-08 15:22:00,69.0,30.0,-100.00,East,95,10.0,24.0,23,0.00,,,0.00,403.000000,,2013-01-08 23:22:00,
2013-01-08 15:32:00,69.0,30.0,-100.00,East,95,10.0,24.0,23,0.00,,,0.00,403.000000,,2013-01-08 23:32:00,
2013-01-08 15:42:00,69.0,30.0,-100.00,East,95,10.0,24.0,23,0.00,,,0.00,403.000000,,2013-01-08 23:42:00,
2013-01-08 16:12:00,68.0,27.0,-100.00,East,95,18.0,25.0,21,0.00,,,0.00,259.000000,,2013-01-09 00:12:00,
2013-01-08 16:22:00,68.0,27.0,-100.00,East,95,18.0,25.0,21,0.00,,,0.00,259.000000,,2013-01-09 00:22:00,
2013-01-08 16:32:00,68.0,27.0,-100.00,East,95,18.0,25.0,21,0.00,,,0.00,259.000000,,2013-01-09 00:32:00,
2013-01-08 16:42:00,68.0,27.0,-100.00,East,95,18.0,25.0,21,0.00,,,0.00,259.000000,,2013-01-09 00:42:00,
2013-01-08 17:12:00,67.0,27.0,-100.00,ENE,77,17.0,23.0,22,0.00,,,0.00,89.000000,,2013-01-09 01:12:00,
2013-01-08 17:22:00,67.0,27.0,-100.00,ENE,77,17.0,23.0,22,0.00,,,0.00,89.000000,,2013-01-09 01:22:00,
2013-01-08 17:32:00,67.0,27.0,-100.00,ENE,77,17.0,23.0,22,0.00,,,0.00,89.000000,,2013-01-09 01:32:00,
2013-01-08 17:42:00,67.0,27.0,-100.00,ENE,77,17.0,23.0,22,0.00,,,0.00,89.000000,,2013-01-09 01:42:00,
2013-01-08 18:12:00,66.0,27.0,-100.00,East,84,14.0,24.0,23,0.00,,,0.00,3.000000,,2013-01-09 02:12:00,
2013-01-08 18:22:00,66.0,27.0,-100.00,East,84,14.0,24.0,23,0.00,,,0.00,3.000000,,2013-01-09 02:22:00,
2013-01-08 18:32:00,66.0,27.0,-100.00,East,84,14.0,24.0,23,0.00,,,0.00,3.000000,,2013-01-09 02:32:00,
2013-01-08 18:42:00,66.0,27.0,-100.00,East,84,14.0,24.0,23,0.00,,,0.00,3.000000,,2013-01-09 02:42:00,
2013-01-08 19:12:00,66.0,27.0,-100.00,East,88,24.0,30.0,23,0.00,,,0.00,0.000000,,2013-01-09 03:12:00,
2013-01-08 19:22:00,66.0,27.0,-100.00,East,88,24.0,30.0,23,0.00,,,0.00,0.000000,,2013-01-09 03:22:00,
2013-01-08 19:32:00,66.0,27.0,-100.00,East,88,24.0,30.0,23,0.00,,,0.00,0.000000,,2013-01-09 03:32:00,
2013-01-08 20:12:00,64.0,27.0,-100.00,East,91,22.0,30.0,25,0.00,,,0.00,0.000000,,2013-01-09 04:12:00,
2013-01-08 20:22:00,64.0,27.0,-100.00,East,91,22.0,30.0,25,0.00,,,0.00,0.000000,,2013-01-09 04:22:00,
2013-01-08 20:32:00,64.0,27.0,-100.00,East,91,22.0,30.0,25,0.00,,,0.00,0.000000,,2013-01-09 04:32:00,
2013-01-08 20:42:00,64.0,27.0,-100.00,East,91,22.0,30.0,25,0.00,,,0.00,0.000000,,2013-01-09 04:42:00,
2013-01-08 21:12:00,64.0,27.0,-100.00,ENE,76,27.0,34.0,25,0.00,,,0.00,0.000000,,2013-01-09 05:12:00,
2013-01-08 21:22:00,64.0,27.0,-100.00,ENE,76,27.0,34.0,25,0.00,,,0.00,0.000000,,2013-01-09 05:22:00,
2013-01-08 21:42:00,64.0,27.0,-100.00,ENE,76,27.0,34.0,25,0.00,,,0.00,0.000000,,2013-01-09 05:42:00,
2013-01-08 22:12:00,64.0,28.0,-100.00,ENE,72,27.0,38.0,26,0.00,,,0.00,0.000000,,2013-01-09 06:12:00,
2013-01-08 22:22:00,64.0,28.0,-100.00,ENE,72,27.0,38.0,26,0.00,,,0.00,0.000000,,2013-01-09 06:22:00,
2013-01-08 23:12:00,64.0,27.0,-100.00,ENE,70,28.0,39.0,25,0.00,,,0.00,0.000000,,2013-01-09 07:12:00,
2013-01-08 23:22:00,64.0,27.0,-100.00,ENE,70,28.0,39.0,25,0.00,,,0.00,0.000000,,2013-01-09 07:22:00,